createdAt,value
2022-10-01T00:02:07.825Z,10.17
2022-10-01T00:04:38.057Z,10.29
2022-10-01T00:07:10.281Z,10.26
2022-10-01T00:09:37.499Z,10.27
2022-10-01T00:12:04.798Z,10.22
2022-10-01T00:14:32.118Z,10.27
2022-10-01T00:16:59.265Z,10.25
2022-10-01T00:19:27.108Z,10.20
2022-10-01T00:21:54.174Z,10.18
2022-10-01T00:24:21.275Z,10.14
2022-10-01T00:26:48.468Z,10.17
2022-10-01T00:29:15.798Z,10.13
2022-10-01T00:31:43.222Z,10.14
2022-10-01T00:34:15.030Z,10.15
2022-10-01T00:36:42.404Z,10.16
2022-10-01T00:39:12.175Z,10.17
2022-10-01T00:41:39.877Z,10.16
2022-10-01T00:44:36.389Z,10.17
2022-10-01T00:47:24.862Z,10.16
2022-10-01T00:49:59.733Z,10.22
2022-10-01T00:52:31.777Z,10.18
2022-10-01T00:55:24.380Z,10.19
2022-10-01T00:57:52.040Z,10.21
2022-10-01T01:00:19.770Z,10.23
2022-10-01T01:02:47.073Z,10.21
2022-10-01T01:05:14.442Z,10.17
2022-10-01T01:07:52.751Z,10.21
2022-10-01T01:10:37.850Z,10.18
2022-10-01T01:13:31.070Z,10.14
2022-10-01T01:16:16.321Z,10.21
2022-10-01T01:19:04.729Z,10.18
2022-10-01T01:21:41.102Z,10.16
2022-10-01T01:24:38.977Z,10.12
2022-10-01T01:27:18.241Z,10.10
2022-10-01T01:30:09.133Z,10.26
2022-10-01T01:32:54.211Z,10.14
2022-10-01T01:35:31.529Z,10.07
2022-10-01T01:38:04.401Z,10.03
2022-10-01T01:40:36.775Z,10.01
2022-10-01T01:43:10.353Z,9.98
2022-10-01T01:45:40.435Z,9.96
2022-10-01T01:48:10.001Z,9.95
2022-10-01T01:51:08.331Z,9.97
2022-10-01T01:53:35.828Z,9.98
2022-10-01T01:56:03.273Z,9.99
2022-10-01T01:58:33.346Z,9.99
2022-10-01T02:01:01.611Z,9.99
2022-10-01T02:03:30.495Z,10.00
2022-10-01T02:06:29.203Z,10.00
2022-10-01T02:09:14.136Z,10.03
2022-10-01T02:11:58.840Z,10.05
2022-10-01T02:14:56.730Z,10.06
2022-10-01T02:17:40.469Z,10.03
2022-10-01T02:20:18.497Z,10.02
2022-10-01T02:22:54.098Z,10.02
2022-10-01T02:25:26.985Z,10.03
2022-10-01T02:28:11.980Z,9.99
2022-10-01T02:30:40.151Z,10.00
2022-10-01T02:33:09.791Z,10.00
2022-10-01T02:35:38.116Z,10.05
2022-10-01T02:38:09.309Z,10.11
2022-10-01T02:40:42.260Z,10.10
2022-10-01T02:43:25.733Z,10.11
2022-10-01T02:45:59.681Z,10.04
2022-10-01T02:48:28.884Z,10.05
2022-10-01T02:51:25.833Z,10.04
2022-10-01T02:54:03.224Z,10.06
2022-10-01T02:56:49.873Z,10.07
2022-10-01T02:59:21.277Z,10.08
2022-10-01T03:01:48.563Z,10.08
2022-10-01T03:04:15.624Z,10.10
2022-10-01T03:06:42.706Z,10.12
2022-10-01T03:09:09.806Z,10.12
2022-10-01T03:11:37.011Z,10.13
2022-10-01T03:14:04.298Z,10.15
2022-10-01T03:16:31.378Z,10.16
2022-10-01T03:18:58.476Z,10.18
2022-10-01T03:21:25.561Z,10.18
2022-10-01T03:23:52.737Z,10.19
2022-10-01T03:26:19.882Z,10.21
2022-10-01T03:28:46.995Z,10.26
2022-10-01T03:31:14.141Z,10.25
2022-10-01T03:33:41.211Z,10.27
2022-10-01T03:36:08.362Z,10.29
2022-10-01T03:38:35.526Z,10.30
2022-10-01T03:41:02.577Z,10.37
2022-10-01T03:43:30.375Z,10.42
2022-10-01T03:45:57.999Z,10.44
2022-10-01T03:48:25.132Z,10.48
2022-10-01T03:50:57.699Z,10.51
2022-10-01T03:53:27.238Z,10.55
2022-10-01T03:55:55.075Z,10.58
2022-10-01T03:58:23.364Z,10.63
2022-10-01T04:00:51.336Z,10.64
2022-10-01T04:03:18.755Z,10.68
2022-10-01T04:05:48.943Z,10.72
2022-10-01T04:08:18.768Z,10.75
2022-10-01T04:10:49.314Z,10.79
2022-10-01T04:13:17.654Z,10.81
2022-10-01T04:15:44.827Z,10.86
2022-10-01T04:18:12.181Z,10.88
2022-10-01T04:20:39.258Z,10.91
2022-10-01T04:23:06.320Z,10.95
2022-10-01T04:25:33.406Z,10.99
2022-10-01T04:28:07.356Z,11.01
2022-10-01T04:30:38.369Z,11.03
2022-10-01T04:33:07.422Z,11.07
2022-10-01T04:35:34.588Z,11.08
2022-10-01T04:38:13.418Z,11.11
2022-10-01T04:40:40.521Z,11.14
2022-10-01T04:43:09.655Z,11.15
2022-10-01T04:45:38.037Z,11.19
2022-10-01T04:48:05.586Z,11.20
2022-10-01T04:50:33.172Z,11.20
2022-10-01T04:53:00.440Z,11.24
2022-10-01T04:55:28.066Z,11.21
2022-10-01T04:57:55.129Z,11.21
2022-10-01T05:00:26.959Z,11.21
2022-10-01T05:02:54.859Z,11.23
2022-10-01T05:05:27.195Z,11.23
2022-10-01T05:07:54.230Z,11.26
2022-10-01T05:10:23.349Z,11.24
2022-10-01T05:12:51.716Z,11.27
2022-10-01T05:15:19.525Z,11.29
2022-10-01T05:17:47.621Z,11.32
2022-10-01T05:20:21.851Z,11.34
2022-10-01T05:22:50.258Z,11.36
2022-10-01T05:25:18.254Z,11.37
2022-10-01T05:27:46.257Z,11.42
2022-10-01T05:30:24.229Z,11.44
2022-10-01T05:33:03.346Z,11.47
2022-10-01T05:35:31.069Z,11.50
2022-10-01T05:38:01.522Z,11.52
2022-10-01T05:40:30.182Z,11.55
2022-10-01T05:42:59.722Z,11.57
2022-10-01T05:45:28.633Z,11.61
2022-10-01T05:48:07.235Z,11.64
2022-10-01T05:50:40.400Z,11.66
2022-10-01T05:53:10.412Z,11.69
2022-10-01T05:55:37.986Z,11.72
2022-10-01T05:58:07.224Z,11.75
2022-10-01T06:00:35.099Z,11.77
2022-10-01T06:03:04.124Z,11.81
2022-10-01T06:05:34.274Z,11.84
2022-10-01T06:08:04.465Z,11.86
2022-10-01T06:10:31.781Z,11.91
2022-10-01T06:13:02.149Z,11.93
2022-10-01T06:15:31.890Z,11.95
2022-10-01T06:18:03.123Z,11.96
2022-10-01T06:20:30.315Z,11.99
2022-10-01T06:22:58.432Z,12.04
2022-10-01T06:25:29.021Z,12.05
2022-10-01T06:27:59.030Z,12.10
2022-10-01T06:30:31.855Z,12.13
2022-10-01T06:33:14.401Z,12.15
2022-10-01T06:35:52.133Z,12.19
2022-10-01T06:38:21.889Z,12.21
2022-10-01T06:40:58.169Z,12.25
2022-10-01T06:43:28.359Z,12.27
2022-10-01T06:45:57.002Z,12.29
2022-10-01T06:48:24.111Z,12.33
2022-10-01T06:50:52.355Z,12.41
2022-10-01T06:53:19.534Z,12.44
2022-10-01T06:55:46.707Z,12.44
2022-10-01T06:58:17.781Z,12.46
2022-10-01T07:00:45.991Z,12.48
2022-10-01T07:03:19.795Z,12.54
2022-10-01T07:05:48.068Z,12.60
2022-10-01T07:08:15.612Z,12.65
2022-10-01T07:10:44.332Z,12.71
2022-10-01T07:13:17.607Z,12.77
2022-10-01T07:15:46.213Z,12.85
2022-10-01T07:18:14.187Z,12.94
2022-10-01T07:20:41.792Z,12.99
2022-10-01T07:23:13.118Z,13.04
2022-10-01T07:25:42.554Z,13.09
2022-10-01T07:28:18.090Z,13.09
2022-10-01T07:31:01.385Z,13.11
2022-10-01T07:33:29.415Z,13.16
2022-10-01T07:36:01.309Z,13.23
2022-10-01T07:38:28.710Z,13.32
2022-10-01T07:40:55.821Z,13.42
2022-10-01T07:43:23.034Z,13.50
2022-10-01T07:45:52.410Z,13.54
2022-10-01T07:48:20.051Z,13.56
2022-10-01T07:50:47.292Z,13.58
2022-10-01T07:53:14.385Z,13.58
2022-10-01T07:55:41.472Z,13.57
2022-10-01T07:58:09.975Z,13.54
2022-10-01T08:00:40.157Z,13.53
2022-10-01T08:03:07.459Z,13.53
2022-10-01T08:05:36.222Z,13.44
2022-10-01T08:08:08.892Z,13.37
2022-10-01T08:10:38.550Z,13.31
2022-10-01T08:13:16.651Z,13.27
2022-10-01T08:15:47.280Z,13.24
2022-10-01T08:18:15.123Z,13.24
2022-10-01T08:20:42.504Z,13.25
2022-10-01T08:23:13.211Z,13.25
2022-10-01T08:25:42.024Z,13.25
2022-10-01T08:28:11.851Z,13.22
2022-10-01T08:30:41.549Z,13.17
2022-10-01T08:33:12.520Z,13.10
2022-10-01T08:35:41.261Z,13.04
2022-10-01T08:38:09.449Z,12.98
2022-10-01T08:40:47.422Z,12.99
2022-10-01T08:43:34.010Z,13.00
2022-10-01T08:46:18.839Z,13.00
2022-10-01T08:49:03.066Z,12.99
2022-10-01T08:51:39.139Z,13.03
2022-10-01T08:54:42.372Z,13.06
2022-10-01T08:57:25.527Z,13.02
2022-10-01T08:59:58.199Z,13.03
2022-10-01T09:02:39.454Z,13.01
2022-10-01T09:05:40.283Z,13.01
2022-10-01T09:08:43.770Z,13.02
2022-10-01T09:11:29.410Z,13.07
2022-10-01T09:14:26.423Z,13.16
2022-10-01T09:17:06.216Z,13.26
2022-10-01T09:19:54.442Z,13.38
2022-10-01T09:22:50.987Z,13.48
2022-10-01T09:25:24.110Z,13.57
2022-10-01T09:28:01.792Z,13.63
2022-10-01T09:30:31.844Z,13.73
2022-10-01T09:33:14.315Z,13.86
2022-10-01T09:36:08.567Z,13.99
2022-10-01T09:38:47.095Z,14.08
2022-10-01T09:41:14.860Z,14.12
2022-10-01T09:43:44.741Z,14.21
2022-10-01T09:46:17.242Z,14.27
2022-10-01T09:49:43.725Z,14.37
2022-10-01T09:52:53.787Z,14.49
2022-10-01T09:55:32.737Z,14.57
2022-10-01T09:58:28.914Z,14.70
2022-10-01T10:00:56.703Z,14.84
2022-10-01T10:03:33.128Z,14.98
2022-10-01T10:06:01.837Z,15.06
2022-10-01T10:08:38.876Z,15.15
2022-10-01T10:11:10.441Z,15.21
2022-10-01T10:13:41.345Z,15.19
2022-10-01T10:16:34.329Z,15.13
2022-10-01T10:19:14.744Z,15.04
2022-10-01T10:21:57.425Z,14.99
2022-10-01T10:24:33.996Z,14.92
2022-10-01T10:27:05.707Z,15.08
2022-10-01T10:29:36.101Z,15.55
2022-10-01T10:32:26.513Z,16.05
2022-10-01T10:35:02.657Z,16.61
2022-10-01T10:37:38.264Z,16.91
2022-10-01T10:40:08.287Z,17.09
2022-10-01T10:42:38.747Z,17.03
2022-10-01T10:45:17.554Z,17.06
2022-10-01T10:47:49.013Z,17.10
2022-10-01T10:50:36.737Z,17.03
2022-10-01T10:53:22.183Z,17.01
2022-10-01T10:56:01.997Z,16.69
2022-10-01T10:58:33.365Z,16.13
2022-10-01T11:01:13.533Z,15.73
2022-10-01T11:03:49.901Z,15.53
2022-10-01T11:06:18.692Z,15.45
2022-10-01T11:08:57.251Z,15.39
2022-10-01T11:11:54.042Z,15.42
2022-10-01T11:15:09.239Z,15.49
2022-10-01T11:18:11.516Z,15.71
2022-10-01T11:21:00.228Z,15.93
2022-10-01T11:24:17.830Z,16.00
2022-10-01T11:27:36.537Z,15.97
2022-10-01T11:30:16.722Z,15.97
2022-10-01T11:33:18.402Z,15.99
2022-10-01T11:36:26.942Z,16.09
2022-10-01T11:39:02.893Z,16.20
2022-10-01T11:41:48.793Z,16.37
2022-10-01T11:44:44.220Z,16.57
2022-10-01T11:47:29.120Z,16.81
2022-10-01T11:50:08.121Z,17.00
2022-10-01T11:52:52.675Z,17.11
2022-10-01T11:55:51.826Z,17.11
2022-10-01T11:58:52.479Z,17.02
2022-10-01T12:01:28.396Z,16.89
2022-10-01T12:04:11.920Z,16.69
2022-10-01T12:07:15.106Z,16.15
2022-10-01T12:10:00.712Z,15.65
2022-10-01T12:12:42.613Z,15.24
2022-10-01T12:15:29.071Z,14.98
2022-10-01T12:18:17.901Z,14.79
2022-10-01T12:20:53.504Z,14.66
2022-10-01T12:23:31.325Z,14.72
2022-10-01T12:26:45.784Z,14.79
2022-10-01T12:29:24.806Z,14.97
2022-10-01T12:32:00.220Z,15.18
2022-10-01T12:34:40.381Z,15.44
2022-10-01T12:37:25.525Z,15.54
2022-10-01T12:40:32.307Z,15.63
2022-10-01T12:43:44.478Z,15.81
2022-10-01T12:46:34.033Z,15.92
2022-10-01T12:49:22.368Z,16.00
2022-10-01T12:52:33.887Z,16.08
2022-10-01T12:55:30.750Z,16.05
2022-10-01T12:58:43.688Z,16.08
2022-10-01T13:01:30.985Z,16.18
2022-10-01T13:04:12.201Z,16.29
2022-10-01T13:07:00.879Z,16.44
2022-10-01T13:09:49.172Z,16.63
2022-10-01T13:13:23.490Z,16.74
2022-10-01T13:16:00.293Z,16.84
2022-10-01T13:18:50.973Z,16.94
2022-10-01T13:21:45.535Z,16.93
2022-10-01T13:24:52.403Z,16.90
2022-10-01T13:27:35.591Z,16.79
2022-10-01T13:30:35.096Z,16.69
2022-10-01T13:33:02.229Z,16.57
2022-10-01T13:35:39.343Z,16.47
2022-10-01T13:38:29.072Z,16.45
2022-10-01T13:41:06.123Z,16.46
2022-10-01T13:43:35.463Z,16.52
2022-10-01T13:46:20.940Z,16.65
2022-10-01T13:48:50.522Z,16.79
2022-10-01T13:51:18.146Z,16.92
2022-10-01T13:53:53.697Z,16.94
2022-10-01T13:56:37.638Z,17.04
2022-10-01T13:59:35.797Z,17.02
2022-10-01T14:02:23.712Z,16.91
2022-10-01T14:04:51.968Z,16.87
2022-10-01T14:07:35.718Z,16.97
2022-10-01T14:10:03.285Z,16.97
2022-10-01T14:12:52.905Z,17.02
2022-10-01T14:15:38.447Z,17.00
2022-10-01T14:18:39.364Z,17.10
2022-10-01T14:21:49.980Z,17.18
2022-10-01T14:25:05.070Z,17.26
2022-10-01T14:27:53.041Z,17.29
2022-10-01T14:30:24.797Z,17.38
2022-10-01T14:33:46.902Z,17.59
2022-10-01T14:36:32.477Z,17.79
2022-10-01T14:39:26.484Z,17.97
2022-10-01T14:41:56.951Z,18.01
2022-10-01T14:44:39.052Z,18.05
2022-10-01T14:47:24.761Z,18.03
2022-10-01T14:49:54.711Z,18.10
2022-10-01T14:52:29.898Z,18.26
2022-10-01T14:54:56.851Z,18.63
2022-10-01T14:57:47.389Z,18.84
2022-10-01T15:00:18.381Z,19.51
2022-10-01T15:03:01.661Z,20.18
2022-10-01T15:05:37.306Z,20.77
2022-10-01T15:08:16.606Z,21.20
2022-10-01T15:10:53.171Z,21.30
2022-10-01T15:13:27.374Z,21.62
2022-10-01T15:15:55.695Z,21.83
2022-10-01T15:18:23.907Z,21.97
2022-10-01T15:20:55.387Z,22.05
2022-10-01T15:23:28.931Z,22.13
2022-10-01T15:26:00.217Z,22.22
2022-10-01T15:28:33.875Z,22.29
2022-10-01T15:31:06.459Z,22.32
2022-10-01T15:33:37.392Z,22.28
2022-10-01T15:36:07.543Z,22.17
2022-10-01T15:38:36.135Z,22.08
2022-10-01T15:41:29.744Z,22.10
2022-10-01T15:43:53.771Z,22.10
2022-10-01T15:46:31.248Z,22.07
2022-10-01T15:49:20.727Z,21.98
2022-10-01T15:52:25.295Z,21.90
2022-10-01T15:55:00.215Z,21.93
2022-10-01T15:57:30.181Z,21.93
2022-10-01T15:59:57.932Z,21.88
2022-10-01T16:02:30.338Z,21.80
2022-10-01T16:05:05.665Z,21.74
2022-10-01T16:07:36.305Z,21.67
2022-10-01T16:10:37.294Z,21.54
2022-10-01T16:13:40.220Z,21.05
2022-10-01T16:16:13.047Z,20.33
2022-10-01T16:18:41.717Z,19.56
2022-10-01T16:21:11.410Z,18.96
2022-10-01T16:23:48.025Z,18.49
2022-10-01T16:26:27.341Z,18.08
2022-10-01T16:29:13.503Z,17.72
2022-10-01T16:31:44.616Z,17.39
2022-10-01T16:34:16.942Z,17.15
2022-10-01T16:36:44.736Z,16.93
2022-10-01T16:39:13.763Z,16.77
2022-10-01T16:41:43.305Z,16.61
2022-10-01T16:44:13.663Z,16.46
2022-10-01T16:46:41.380Z,16.34
2022-10-01T16:49:14.826Z,16.21
2022-10-01T16:51:42.699Z,16.11
2022-10-01T16:54:22.348Z,15.99
2022-10-01T16:56:51.925Z,15.90
2022-10-01T16:59:22.759Z,15.81
2022-10-01T17:01:54.692Z,15.74
2022-10-01T17:04:23.476Z,15.64
2022-10-01T17:06:50.671Z,15.56
2022-10-01T17:09:17.819Z,15.49
2022-10-01T17:11:48.215Z,15.40
2022-10-01T17:14:18.489Z,15.32
2022-10-01T17:16:45.697Z,15.24
2022-10-01T17:19:13.738Z,15.18
2022-10-01T17:21:41.724Z,15.14
2022-10-01T17:24:12.060Z,15.09
2022-10-01T17:26:41.727Z,15.03
2022-10-01T17:29:09.867Z,14.98
2022-10-01T17:31:40.787Z,14.92
2022-10-01T17:34:08.359Z,14.88
2022-10-01T17:36:35.752Z,14.84
2022-10-01T17:39:03.662Z,14.77
2022-10-01T17:41:30.878Z,14.74
2022-10-01T17:43:58.214Z,14.68
2022-10-01T17:46:25.303Z,14.64
2022-10-01T17:48:52.521Z,14.59
2022-10-01T17:51:20.051Z,14.57
2022-10-01T17:53:47.894Z,14.52
2022-10-01T17:56:18.000Z,14.49
2022-10-01T17:58:46.319Z,14.45
2022-10-01T18:01:22.664Z,14.41
2022-10-01T18:03:56.513Z,14.40
2022-10-01T18:06:25.177Z,14.34
2022-10-01T18:08:56.704Z,14.32
2022-10-01T18:11:28.987Z,14.28
2022-10-01T18:13:56.321Z,14.25
2022-10-01T18:16:24.302Z,14.22
2022-10-01T18:21:48.474Z,14.14
2022-10-01T18:24:17.626Z,14.12
2022-10-01T18:26:45.760Z,14.10
2022-10-01T18:29:25.919Z,14.08
2022-10-01T18:32:00.901Z,14.08
2022-10-01T18:34:48.842Z,14.09
2022-10-01T18:37:37.553Z,14.11
2022-10-01T18:40:16.175Z,14.11
2022-10-01T18:42:47.173Z,14.12
2022-10-01T18:45:33.187Z,14.13
2022-10-01T18:48:14.375Z,14.11
2022-10-01T18:50:58.049Z,14.11
2022-10-01T18:53:34.620Z,14.09
2022-10-01T18:56:33.391Z,14.03
2022-10-01T18:59:41.708Z,14.00
2022-10-01T19:02:39.123Z,13.94
2022-10-01T19:05:33.076Z,13.92
2022-10-01T19:08:16.645Z,13.89
2022-10-01T19:11:01.860Z,13.86
2022-10-01T19:13:52.866Z,13.79
2022-10-01T19:16:56.893Z,13.76
2022-10-01T19:19:52.604Z,13.71
2022-10-01T19:23:09.291Z,13.66
2022-10-01T19:25:50.041Z,13.61
2022-10-01T19:28:38.637Z,13.54
2022-10-01T19:31:32.752Z,13.48
2022-10-01T19:34:17.485Z,13.43
2022-10-01T19:36:53.838Z,13.39
2022-10-01T19:39:29.242Z,13.33
2022-10-01T19:42:13.976Z,13.28
2022-10-01T19:44:58.047Z,13.24
2022-10-01T19:47:53.656Z,13.20
2022-10-01T19:50:30.125Z,13.16
2022-10-01T19:53:00.800Z,13.11
2022-10-01T19:55:38.390Z,13.07
2022-10-01T19:58:19.665Z,13.04
2022-10-01T20:00:57.059Z,12.99
2022-10-01T20:03:47.723Z,12.94
2022-10-01T20:06:31.237Z,12.91
2022-10-01T20:09:28.687Z,12.85
2022-10-01T20:12:02.227Z,12.82
2022-10-01T20:15:08.974Z,12.79
2022-10-01T20:18:01.242Z,12.76
2022-10-01T20:20:41.741Z,12.73
2022-10-01T20:23:30.182Z,12.70
2022-10-01T20:26:24.143Z,12.67
2022-10-01T20:29:10.458Z,12.66
2022-10-01T20:32:27.471Z,12.63
2022-10-01T20:35:26.350Z,12.64
2022-10-01T20:38:14.784Z,12.67
2022-10-01T20:40:53.285Z,12.66
2022-10-01T20:43:44.533Z,12.68
2022-10-01T20:46:49.524Z,12.70
2022-10-01T20:49:40.956Z,12.70
2022-10-01T20:52:34.360Z,12.71
2022-10-01T20:55:18.769Z,12.71
2022-10-01T20:57:58.683Z,12.68
2022-10-01T21:00:28.072Z,12.68
2022-10-01T21:03:45.975Z,12.67
2022-10-01T21:06:30.066Z,12.66
2022-10-01T21:09:10.989Z,12.65
2022-10-01T21:12:18.370Z,12.63
2022-10-01T21:14:53.822Z,12.61
2022-10-01T21:17:42.097Z,12.62
2022-10-01T21:20:41.402Z,12.62
2022-10-01T21:23:37.179Z,12.61
2022-10-01T21:26:50.493Z,12.61
2022-10-01T21:30:04.736Z,12.61
2022-10-01T21:33:02.642Z,12.64
2022-10-01T21:36:07.069Z,12.65
2022-10-01T21:39:00.409Z,12.66
2022-10-01T21:41:53.782Z,12.67
2022-10-01T21:45:00.808Z,12.68
2022-10-01T21:47:45.891Z,12.68
2022-10-01T21:50:54.302Z,12.70
2022-10-01T21:53:46.756Z,12.72
2022-10-01T21:56:40.701Z,12.75
2022-10-01T21:59:39.054Z,12.73
2022-10-01T22:02:26.301Z,12.77
2022-10-01T22:05:02.995Z,12.78
2022-10-01T22:07:46.114Z,12.77
2022-10-01T22:10:46.386Z,12.75
2022-10-01T22:13:25.109Z,12.77
2022-10-01T22:16:01.865Z,12.78
2022-10-01T22:18:46.230Z,12.76
2022-10-01T22:21:30.986Z,12.76
2022-10-01T22:24:21.011Z,12.75
2022-10-01T22:26:58.771Z,12.74
2022-10-01T22:29:30.443Z,12.72
2022-10-01T22:32:03.346Z,12.72
2022-10-01T22:34:39.296Z,12.72
2022-10-01T22:37:19.829Z,12.71
2022-10-01T22:40:00.615Z,12.70
2022-10-01T22:42:38.695Z,12.68
2022-10-01T22:45:17.697Z,12.68
2022-10-01T22:48:04.007Z,12.67
2022-10-01T22:51:05.804Z,12.67
2022-10-01T22:53:51.288Z,12.64
2022-10-01T22:56:31.246Z,12.62
2022-10-01T22:59:07.410Z,12.60
2022-10-01T23:02:14.560Z,12.59
2022-10-01T23:04:50.413Z,12.57
2022-10-01T23:07:20.177Z,12.55
2022-10-01T23:09:58.462Z,12.55
2022-10-01T23:13:12.914Z,12.56
2022-10-01T23:16:01.738Z,12.57
2022-10-01T23:18:50.215Z,12.56
2022-10-01T23:22:02.142Z,12.61
2022-10-01T23:25:25.784Z,12.62
2022-10-01T23:28:45.347Z,12.64
2022-10-01T23:31:44.712Z,12.66
2022-10-01T23:34:41.349Z,12.66
2022-10-01T23:37:43.379Z,12.67
2022-10-01T23:40:18.107Z,12.74
2022-10-01T23:43:12.607Z,12.81
2022-10-01T23:45:54.885Z,12.81
2022-10-01T23:48:38.162Z,12.83
2022-10-01T23:51:24.608Z,12.87
2022-10-01T23:54:32.028Z,12.93
2022-10-01T23:57:21.595Z,12.98
